sensor_id;sensor_type;location;lat;lon;timestamp;pressure;altitude;pressure_sealevel;temperature;humidity
10202;BME280;5143;42.584;23.164;2023-04-27T00:00:12;92248.44;;;6.32;91.63
10202;BME280;5143;42.584;23.164;2023-04-27T00:02:39;92247.59;;;6.26;93.92
10202;BME280;5143;42.584;23.164;2023-04-27T00:05:07;92245.84;;;6.23;96.82
10202;BME280;5143;42.584;23.164;2023-04-27T00:07:36;92245.72;;;6.18;100.00
10202;BME280;5143;42.584;23.164;2023-04-27T00:10:03;92243.63;;;6.13;97.64
10202;BME280;5143;42.584;23.164;2023-04-27T00:12:31;92239.03;;;6.04;100.00
10202;BME280;5143;42.584;23.164;2023-04-27T00:14:58;92244.91;;;6.03;100.00
10202;BME280;5143;42.584;23.164;2023-04-27T00:17:24;92251.72;;;5.98;100.00
10202;BME280;5143;42.584;23.164;2023-04-27T00:19:51;92262.88;;;5.91;100.00
10202;BME280;5143;42.584;23.164;2023-04-27T00:22:18;92267.72;;;5.87;100.00
10202;BME280;5143;42.584;23.164;2023-04-27T00:24:47;92279.31;;;5.87;100.00
10202;BME280;5143;42.584;23.164;2023-04-27T00:27:13;92273.59;;;5.85;100.00
10202;BME280;5143;42.584;23.164;2023-04-27T00:29:40;92275.56;;;5.85;100.00
10202;BME280;5143;42.584;23.164;2023-04-27T00:32:08;92280.34;;;5.90;100.00
10202;BME280;5143;42.584;23.164;2023-04-27T00:34:35;92272.66;;;5.88;100.00
10202;BME280;5143;42.584;23.164;2023-04-27T00:37:02;92273.72;;;5.91;100.00
10202;BME280;5143;42.584;23.164;2023-04-27T00:39:29;92270.72;;;5.89;100.00
10202;BME280;5143;42.584;23.164;2023-04-27T00:41:57;92270.16;;;5.85;100.00
10202;BME280;5143;42.584;23.164;2023-04-27T00:44:24;92268.31;;;5.82;100.00
10202;BME280;5143;42.584;23.164;2023-04-27T00:46:52;92268.94;;;5.77;100.00
10202;BME280;5143;42.584;23.164;2023-04-27T00:49:19;92262.78;;;5.76;98.94
10202;BME280;5143;42.584;23.164;2023-04-27T00:51:46;92274.19;;;5.80;100.00
10202;BME280;5143;42.584;23.164;2023-04-27T00:54:14;92277.66;;;5.81;100.00
10202;BME280;5143;42.584;23.164;2023-04-27T00:56:44;92282.31;;;5.80;99.76
10202;BME280;5143;42.584;23.164;2023-04-27T00:59:15;92279.16;;;5.82;100.00
10202;BME280;5143;42.584;23.164;2023-04-27T01:01:41;92277.38;;;5.79;100.00
10202;BME280;5143;42.584;23.164;2023-04-27T01:04:08;92277.81;;;5.77;91.79
10202;BME280;5143;42.584;23.164;2023-04-27T01:06:35;92284.75;;;5.78;100.00
10202;BME280;5143;42.584;23.164;2023-04-27T01:09:02;92283.69;;;5.76;99.46
10202;BME280;5143;42.584;23.164;2023-04-27T01:11:29;92292.91;;;5.69;93.39
10202;BME280;5143;42.584;23.164;2023-04-27T01:13:56;92288.81;;;5.74;95.03
10202;BME280;5143;42.584;23.164;2023-04-27T01:16:24;92301.63;;;5.73;90.97
10202;BME280;5143;42.584;23.164;2023-04-27T01:18:51;92288.69;;;5.68;91.57
10202;BME280;5143;42.584;23.164;2023-04-27T01:21:18;92289.75;;;5.71;97.00
10202;BME280;5143;42.584;23.164;2023-04-27T01:23:46;92292.13;;;5.69;92.75
10202;BME280;5143;42.584;23.164;2023-04-27T01:26:13;92289.63;;;5.65;96.39
10202;BME280;5143;42.584;23.164;2023-04-27T01:28:40;92299.09;;;5.61;88.57
10202;BME280;5143;42.584;23.164;2023-04-27T01:31:08;92296.09;;;5.59;94.50
10202;BME280;5143;42.584;23.164;2023-04-27T01:33:35;92301.50;;;5.59;89.59
10202;BME280;5143;42.584;23.164;2023-04-27T01:36:03;92293.72;;;5.52;95.35
10202;BME280;5143;42.584;23.164;2023-04-27T01:38:31;92302.56;;;5.52;93.51
10202;BME280;5143;42.584;23.164;2023-04-27T01:40:59;92298.84;;;5.50;95.42
10202;BME280;5143;42.584;23.164;2023-04-27T01:43:27;92298.69;;;5.44;100.00
10202;BME280;5143;42.584;23.164;2023-04-27T01:45:55;92294.94;;;5.42;100.00
10202;BME280;5143;42.584;23.164;2023-04-27T01:48:22;92299.16;;;5.43;98.67
10202;BME280;5143;42.584;23.164;2023-04-27T01:50:48;92303.66;;;5.46;99.55
10202;BME280;5143;42.584;23.164;2023-04-27T01:53:15;92302.75;;;5.49;100.00
10202;BME280;5143;42.584;23.164;2023-04-27T01:55:42;92311.44;;;5.53;99.06
10202;BME280;5143;42.584;23.164;2023-04-27T01:58:10;92298.84;;;5.50;100.00
10202;BME280;5143;42.584;23.164;2023-04-27T02:00:37;92310.47;;;5.41;95.07
10202;BME280;5143;42.584;23.164;2023-04-27T02:03:03;92300.06;;;5.40;94.07
10202;BME280;5143;42.584;23.164;2023-04-27T02:05:30;92298.75;;;5.35;95.94
10202;BME280;5143;42.584;23.164;2023-04-27T02:07:57;92295.00;;;5.32;89.56
10202;BME280;5143;42.584;23.164;2023-04-27T02:10:23;92300.38;;;5.42;93.03
10202;BME280;5143;42.584;23.164;2023-04-27T02:12:50;92305.34;;;5.34;87.75
10202;BME280;5143;42.584;23.164;2023-04-27T02:15:18;92289.25;;;5.40;90.92
10202;BME280;5143;42.584;23.164;2023-04-27T02:17:45;92302.44;;;5.47;95.32
10202;BME280;5143;42.584;23.164;2023-04-27T02:20:12;92301.53;;;5.50;100.00
10202;BME280;5143;42.584;23.164;2023-04-27T02:22:40;92312.41;;;5.41;92.32
10202;BME280;5143;42.584;23.164;2023-04-27T02:25:08;92310.56;;;5.47;91.20
10202;BME280;5143;42.584;23.164;2023-04-27T02:27:36;92312.50;;;5.55;95.14
10202;BME280;5143;42.584;23.164;2023-04-27T02:30:04;92313.72;;;5.54;85.10
10202;BME280;5143;42.584;23.164;2023-04-27T02:32:32;92313.88;;;5.51;92.26
10202;BME280;5143;42.584;23.164;2023-04-27T02:34:59;92318.09;;;5.52;87.80
10202;BME280;5143;42.584;23.164;2023-04-27T02:37:26;92317.47;;;5.57;91.82
10202;BME280;5143;42.584;23.164;2023-04-27T02:39:53;92321.38;;;5.56;82.70
10202;BME280;5143;42.584;23.164;2023-04-27T02:42:19;92311.00;;;5.54;85.88
10202;BME280;5143;42.584;23.164;2023-04-27T02:44:46;92321.09;;;5.54;94.13
10202;BME280;5143;42.584;23.164;2023-04-27T02:47:13;92310.81;;;5.58;100.00
10202;BME280;5143;42.584;23.164;2023-04-27T02:49:41;92314.13;;;5.62;94.39
10202;BME280;5143;42.584;23.164;2023-04-27T02:52:08;92315.94;;;5.65;90.15
10202;BME280;5143;42.584;23.164;2023-04-27T02:54:35;92318.34;;;5.63;89.63
10202;BME280;5143;42.584;23.164;2023-04-27T02:57:02;92318.81;;;5.61;87.08
10202;BME280;5143;42.584;23.164;2023-04-27T02:59:28;92313.84;;;5.60;81.50
10202;BME280;5143;42.584;23.164;2023-04-27T03:01:55;92323.78;;;5.63;89.65
10202;BME280;5143;42.584;23.164;2023-04-27T03:04:22;92325.59;;;5.57;83.85
10202;BME280;5143;42.584;23.164;2023-04-27T03:06:50;92326.03;;;5.55;85.19
10202;BME280;5143;42.584;23.164;2023-04-27T03:09:16;92329.50;;;5.56;86.49
10202;BME280;5143;42.584;23.164;2023-04-27T03:11:43;92334.75;;;5.59;87.50
10202;BME280;5143;42.584;23.164;2023-04-27T03:14:10;92334.75;;;5.59;94.50
10202;BME280;5143;42.584;23.164;2023-04-27T03:16:38;92338.78;;;5.64;95.77
10202;BME280;5143;42.584;23.164;2023-04-27T03:19:05;92344.53;;;5.66;92.78
10202;BME280;5143;42.584;23.164;2023-04-27T03:21:31;92338.25;;;5.51;80.08
10202;BME280;5143;42.584;23.164;2023-04-27T03:24:00;92342.75;;;5.54;84.83
10202;BME280;5143;42.584;23.164;2023-04-27T03:26:26;92356.84;;;5.58;85.36
10202;BME280;5143;42.584;23.164;2023-04-27T03:28:53;92347.56;;;5.50;82.82
10202;BME280;5143;42.584;23.164;2023-04-27T03:31:20;92353.72;;;5.50;83.10
10202;BME280;5143;42.584;23.164;2023-04-27T03:33:46;92353.28;;;5.52;79.01
10202;BME280;5143;42.584;23.164;2023-04-27T03:36:13;92359.00;;;5.54;83.12
10202;BME280;5143;42.584;23.164;2023-04-27T03:38:40;92352.38;;;5.55;81.13
10202;BME280;5143;42.584;23.164;2023-04-27T03:41:08;92359.91;;;5.51;84.52
10202;BME280;5143;42.584;23.164;2023-04-27T03:43:35;92361.22;;;5.55;83.35
10202;BME280;5143;42.584;23.164;2023-04-27T03:46:02;92367.69;;;5.58;86.49
10202;BME280;5143;42.584;23.164;2023-04-27T03:48:29;92363.50;;;5.57;76.96
10202;BME280;5143;42.584;23.164;2023-04-27T03:50:56;92361.72;;;5.45;76.38
10202;BME280;5143;42.584;23.164;2023-04-27T03:53:23;92366.84;;;5.43;85.41
10202;BME280;5143;42.584;23.164;2023-04-27T03:55:49;92368.34;;;5.44;86.79
10202;BME280;5143;42.584;23.164;2023-04-27T03:58:17;92376.63;;;5.40;86.29
10202;BME280;5143;42.584;23.164;2023-04-27T04:00:44;92374.66;;;5.41;77.25
10202;BME280;5143;42.584;23.164;2023-04-27T04:03:11;92365.03;;;5.40;73.99
10202;BME280;5143;42.584;23.164;2023-04-27T04:05:37;92388.75;;;5.54;74.88
10202;BME280;5143;42.584;23.164;2023-04-27T04:08:05;92382.88;;;5.55;76.54
10202;BME280;5143;42.584;23.164;2023-04-27T04:10:31;92387.56;;;5.55;80.96
10202;BME280;5143;42.584;23.164;2023-04-27T04:12:58;92395.69;;;5.55;80.22
10202;BME280;5143;42.584;23.164;2023-04-27T04:15:26;92400.50;;;5.60;74.57
10202;BME280;5143;42.584;23.164;2023-04-27T04:17:53;92405.00;;;5.63;77.21
10202;BME280;5143;42.584;23.164;2023-04-27T04:20:20;92410.28;;;5.57;73.83
10202;BME280;5143;42.584;23.164;2023-04-27T04:22:46;92414.94;;;5.66;72.28
10202;BME280;5143;42.584;23.164;2023-04-27T04:25:13;92417.66;;;5.57;71.25
10202;BME280;5143;42.584;23.164;2023-04-27T04:27:40;92415.84;;;5.63;72.66
10202;BME280;5143;42.584;23.164;2023-04-27T04:30:07;92419.72;;;5.62;70.10
10202;BME280;5143;42.584;23.164;2023-04-27T04:32:35;92417.63;;;5.66;70.49
10202;BME280;5143;42.584;23.164;2023-04-27T04:35:03;92413.25;;;5.68;68.74
10202;BME280;5143;42.584;23.164;2023-04-27T04:37:32;92413.84;;;5.72;70.31
10202;BME280;5143;42.584;23.164;2023-04-27T04:39:59;92426.94;;;5.74;71.98
10202;BME280;5143;42.584;23.164;2023-04-27T04:42:26;92423.34;;;5.68;70.05
10202;BME280;5143;42.584;23.164;2023-04-27T04:44:53;92413.69;;;5.67;69.58
10202;BME280;5143;42.584;23.164;2023-04-27T04:47:19;92417.44;;;5.78;69.35
10202;BME280;5143;42.584;23.164;2023-04-27T04:49:47;92421.81;;;5.76;69.65
10202;BME280;5143;42.584;23.164;2023-04-27T04:52:14;92425.84;;;5.80;71.41
10202;BME280;5143;42.584;23.164;2023-04-27T04:54:41;92428.72;;;5.86;72.89
10202;BME280;5143;42.584;23.164;2023-04-27T04:57:08;92436.22;;;5.91;73.58
10202;BME280;5143;42.584;23.164;2023-04-27T04:59:34;92444.69;;;5.93;70.34
10202;BME280;5143;42.584;23.164;2023-04-27T05:02:01;92433.66;;;5.97;70.79
10202;BME280;5143;42.584;23.164;2023-04-27T05:04:28;92435.84;;;6.16;71.29
10202;BME280;5143;42.584;23.164;2023-04-27T05:06:56;92437.03;;;6.24;72.77
10202;BME280;5143;42.584;23.164;2023-04-27T05:09:24;92427.78;;;6.40;73.65
10202;BME280;5143;42.584;23.164;2023-04-27T05:11:51;92444.84;;;6.64;70.52
10202;BME280;5143;42.584;23.164;2023-04-27T05:14:18;92442.03;;;6.49;71.18
10202;BME280;5143;42.584;23.164;2023-04-27T05:16:45;92451.09;;;6.46;68.87
10202;BME280;5143;42.584;23.164;2023-04-27T05:19:13;92465.69;;;6.49;68.30
10202;BME280;5143;42.584;23.164;2023-04-27T05:21:42;92461.66;;;6.44;70.54
10202;BME280;5143;42.584;23.164;2023-04-27T05:24:11;92457.53;;;6.58;72.39
10202;BME280;5143;42.584;23.164;2023-04-27T05:26:38;92457.88;;;6.75;70.68
10202;BME280;5143;42.584;23.164;2023-04-27T05:29:05;92457.72;;;6.78;69.36
10202;BME280;5143;42.584;23.164;2023-04-27T05:31:32;92454.19;;;6.87;67.13
10202;BME280;5143;42.584;23.164;2023-04-27T05:33:59;92457.25;;;6.56;64.53
10202;BME280;5143;42.584;23.164;2023-04-27T05:36:25;92456.94;;;6.54;64.79
10202;BME280;5143;42.584;23.164;2023-04-27T05:38:52;92461.50;;;6.72;65.17
10202;BME280;5143;42.584;23.164;2023-04-27T05:41:20;92462.28;;;6.72;64.28
10202;BME280;5143;42.584;23.164;2023-04-27T05:43:48;92466.53;;;6.88;65.13
10202;BME280;5143;42.584;23.164;2023-04-27T05:46:15;92467.66;;;7.05;63.49
10202;BME280;5143;42.584;23.164;2023-04-27T05:48:41;92463.03;;;6.96;64.16
10202;BME280;5143;42.584;23.164;2023-04-27T05:51:08;92480.22;;;7.17;63.17
10202;BME280;5143;42.584;23.164;2023-04-27T05:53:35;92471.97;;;7.35;63.16
10202;BME280;5143;42.584;23.164;2023-04-27T05:56:01;92480.81;;;7.59;62.98
10202;BME280;5143;42.584;23.164;2023-04-27T05:58:32;92478.81;;;7.45;61.40
10202;BME280;5143;42.584;23.164;2023-04-27T06:00:59;92477.25;;;7.53;62.73
10202;BME280;5143;42.584;23.164;2023-04-27T06:03:25;92477.59;;;7.85;62.60
10202;BME280;5143;42.584;23.164;2023-04-27T06:05:53;92479.56;;;7.99;62.29
10202;BME280;5143;42.584;23.164;2023-04-27T06:08:20;92475.72;;;8.05;61.71
10202;BME280;5143;42.584;23.164;2023-04-27T06:10:47;92489.53;;;8.31;62.58
10202;BME280;5143;42.584;23.164;2023-04-27T06:13:13;92491.22;;;8.28;58.23
10202;BME280;5143;42.584;23.164;2023-04-27T06:15:42;92485.88;;;8.34;59.49
10202;BME280;5143;42.584;23.164;2023-04-27T06:18:09;92479.78;;;8.54;60.00
10202;BME280;5143;42.584;23.164;2023-04-27T06:20:35;92489.50;;;8.60;59.69
10202;BME280;5143;42.584;23.164;2023-04-27T06:23:02;92481.56;;;8.57;58.14
10202;BME280;5143;42.584;23.164;2023-04-27T06:25:29;92481.47;;;8.51;61.03
10202;BME280;5143;42.584;23.164;2023-04-27T06:27:56;92471.97;;;8.61;60.45
10202;BME280;5143;42.584;23.164;2023-04-27T06:30:23;92483.38;;;8.80;58.96
10202;BME280;5143;42.584;23.164;2023-04-27T06:32:51;92480.63;;;8.95;57.69
10202;BME280;5143;42.584;23.164;2023-04-27T06:35:18;92479.19;;;8.64;58.42
10202;BME280;5143;42.584;23.164;2023-04-27T06:37:45;92480.56;;;8.74;57.79
10202;BME280;5143;42.584;23.164;2023-04-27T06:40:12;92472.91;;;8.93;58.05
10202;BME280;5143;42.584;23.164;2023-04-27T06:42:39;92478.34;;;8.58;57.79
10202;BME280;5143;42.584;23.164;2023-04-27T06:45:06;92471.34;;;8.86;59.03
10202;BME280;5143;42.584;23.164;2023-04-27T06:47:33;92472.41;;;8.74;58.58
10202;BME280;5143;42.584;23.164;2023-04-27T06:50:01;92469.00;;;8.79;58.71
10202;BME280;5143;42.584;23.164;2023-04-27T06:52:30;92481.44;;;9.21;58.78
10202;BME280;5143;42.584;23.164;2023-04-27T06:54:57;92477.50;;;9.22;56.23
10202;BME280;5143;42.584;23.164;2023-04-27T06:57:24;92480.25;;;9.42;56.52
10202;BME280;5143;42.584;23.164;2023-04-27T06:59:50;92476.34;;;9.48;55.38
10202;BME280;5143;42.584;23.164;2023-04-27T07:02:17;92473.75;;;9.39;56.10
10202;BME280;5143;42.584;23.164;2023-04-27T07:04:44;92466.19;;;9.69;55.77
10202;BME280;5143;42.584;23.164;2023-04-27T07:07:12;92445.09;;;9.44;56.43
10202;BME280;5143;42.584;23.164;2023-04-27T07:09:39;92458.66;;;9.18;55.33
10202;BME280;5143;42.584;23.164;2023-04-27T07:12:06;92464.31;;;8.80;54.70
10202;BME280;5143;42.584;23.164;2023-04-27T07:14:33;92466.63;;;8.52;55.53
10202;BME280;5143;42.584;23.164;2023-04-27T07:16:59;92471.13;;;8.55;55.99
10202;BME280;5143;42.584;23.164;2023-04-27T07:19:26;92469.25;;;8.47;56.04
10202;BME280;5143;42.584;23.164;2023-04-27T07:21:53;92468.13;;;8.53;56.57
10202;BME280;5143;42.584;23.164;2023-04-27T07:24:21;92468.22;;;8.59;55.80
10202;BME280;5143;42.584;23.164;2023-04-27T07:26:48;92470.19;;;8.58;56.89
10202;BME280;5143;42.584;23.164;2023-04-27T07:29:15;92456.66;;;8.64;55.59
10202;BME280;5143;42.584;23.164;2023-04-27T07:31:42;92457.88;;;8.98;57.04
10202;BME280;5143;42.584;23.164;2023-04-27T07:34:09;92456.13;;;9.35;56.77
10202;BME280;5143;42.584;23.164;2023-04-27T07:36:36;92467.97;;;9.52;55.38
10202;BME280;5143;42.584;23.164;2023-04-27T07:39:04;92465.91;;;9.67;55.83
10202;BME280;5143;42.584;23.164;2023-04-27T07:41:33;92467.97;;;9.52;53.50
10202;BME280;5143;42.584;23.164;2023-04-27T07:44:00;92458.38;;;9.57;53.64
10202;BME280;5143;42.584;23.164;2023-04-27T07:46:27;92464.19;;;9.70;53.88
10202;BME280;5143;42.584;23.164;2023-04-27T07:48:56;92467.16;;;9.66;53.19
10202;BME280;5143;42.584;23.164;2023-04-27T07:51:24;92467.84;;;9.61;52.46
10202;BME280;5143;42.584;23.164;2023-04-27T07:53:53;92464.84;;;9.39;52.98
10202;BME280;5143;42.584;23.164;2023-04-27T07:56:20;92461.63;;;9.20;52.65
10202;BME280;5143;42.584;23.164;2023-04-27T07:58:48;92470.03;;;9.17;53.50
10202;BME280;5143;42.584;23.164;2023-04-27T08:01:15;92463.25;;;9.12;54.01
10202;BME280;5143;42.584;23.164;2023-04-27T08:03:41;92471.72;;;9.14;54.56
10202;BME280;5143;42.584;23.164;2023-04-27T08:06:08;92469.94;;;9.11;53.16
10202;BME280;5143;42.584;23.164;2023-04-27T08:08:35;92470.78;;;9.17;53.52
10202;BME280;5143;42.584;23.164;2023-04-27T08:11:02;92477.22;;;9.60;53.67
10202;BME280;5143;42.584;23.164;2023-04-27T08:13:29;92464.38;;;9.61;54.21
10202;BME280;5143;42.584;23.164;2023-04-27T08:15:57;92474.75;;;9.82;53.28
10202;BME280;5143;42.584;23.164;2023-04-27T08:18:25;92474.81;;;9.88;53.32
10202;BME280;5143;42.584;23.164;2023-04-27T08:20:51;92471.22;;;9.76;53.14
10202;BME280;5143;42.584;23.164;2023-04-27T08:23:18;92473.63;;;9.94;52.86
10202;BME280;5143;42.584;23.164;2023-04-27T08:25:45;92474.00;;;9.82;53.45
10202;BME280;5143;42.584;23.164;2023-04-27T08:28:13;92476.22;;;9.58;52.86
10202;BME280;5143;42.584;23.164;2023-04-27T08:30:40;92460.97;;;9.45;55.41
10202;BME280;5143;42.584;23.164;2023-04-27T08:33:09;92433.63;;;9.60;54.05
10202;BME280;5143;42.584;23.164;2023-04-27T08:35:35;92473.09;;;9.90;53.92
10202;BME280;5143;42.584;23.164;2023-04-27T08:38:02;92466.59;;;9.62;54.41
10202;BME280;5143;42.584;23.164;2023-04-27T08:40:29;92479.41;;;9.76;54.25
10202;BME280;5143;42.584;23.164;2023-04-27T08:42:57;92478.06;;;9.66;52.45
10202;BME280;5143;42.584;23.164;2023-04-27T08:45:26;92478.75;;;9.61;52.66
10202;BME280;5143;42.584;23.164;2023-04-27T08:47:53;92466.31;;;9.80;52.65
10202;BME280;5143;42.584;23.164;2023-04-27T08:50:21;92473.13;;;10.42;52.41
10202;BME280;5143;42.584;23.164;2023-04-27T08:52:49;92481.22;;;10.62;50.92
10202;BME280;5143;42.584;23.164;2023-04-27T08:55:16;92479.00;;;10.66;51.96
10202;BME280;5143;42.584;23.164;2023-04-27T08:57:53;92486.97;;;11.01;51.66
10202;BME280;5143;42.584;23.164;2023-04-27T09:00:21;92486.56;;;11.19;51.37
10202;BME280;5143;42.584;23.164;2023-04-27T09:02:49;92470.47;;;10.53;50.67
10202;BME280;5143;42.584;23.164;2023-04-27T09:05:16;92484.47;;;10.66;49.95
10202;BME280;5143;42.584;23.164;2023-04-27T09:07:54;92485.81;;;10.76;50.25
10202;BME280;5143;42.584;23.164;2023-04-27T09:10:21;92481.56;;;10.75;51.22
10202;BME280;5143;42.584;23.164;2023-04-27T09:12:54;92484.50;;;11.03;50.34
10202;BME280;5143;42.584;23.164;2023-04-27T09:15:21;92486.41;;;11.34;50.57
10202;BME280;5143;42.584;23.164;2023-04-27T09:17:52;92489.41;;;11.83;49.16
10202;BME280;5143;42.584;23.164;2023-04-27T09:20:19;92480.50;;;12.00;47.20
10202;BME280;5143;42.584;23.164;2023-04-27T09:22:49;92477.28;;;12.07;46.97
10202;BME280;5143;42.584;23.164;2023-04-27T09:25:27;92470.13;;;12.81;49.13
10202;BME280;5143;42.584;23.164;2023-04-27T09:27:54;92465.41;;;13.10;46.02
10202;BME280;5143;42.584;23.164;2023-04-27T09:30:22;92467.38;;;12.92;46.28
10202;BME280;5143;42.584;23.164;2023-04-27T09:32:52;92462.44;;;12.69;44.13
10202;BME280;5143;42.584;23.164;2023-04-27T09:35:21;92460.69;;;12.55;44.79
10202;BME280;5143;42.584;23.164;2023-04-27T09:37:50;92457.41;;;12.39;46.29
10202;BME280;5143;42.584;23.164;2023-04-27T09:40:18;92455.38;;;12.01;46.14
10202;BME280;5143;42.584;23.164;2023-04-27T09:42:48;92453.66;;;12.15;46.67
10202;BME280;5143;42.584;23.164;2023-04-27T09:45:16;92451.94;;;12.51;45.59
10202;BME280;5143;42.584;23.164;2023-04-27T09:47:43;92450.63;;;11.96;45.30
10202;BME280;5143;42.584;23.164;2023-04-27T09:50:12;92452.16;;;12.08;45.60
10202;BME280;5143;42.584;23.164;2023-04-27T09:52:39;92450.19;;;12.20;45.33
10202;BME280;5143;42.584;23.164;2023-04-27T09:55:09;92450.22;;;12.70;44.11
10202;BME280;5143;42.584;23.164;2023-04-27T09:57:42;92449.69;;;13.05;44.54
10202;BME280;5143;42.584;23.164;2023-04-27T10:00:19;92441.75;;;12.79;44.17
10202;BME280;5143;42.584;23.164;2023-04-27T10:03:10;92445.47;;;12.42;43.60
10202;BME280;5143;42.584;23.164;2023-04-27T10:06:05;92436.72;;;12.00;44.69
10202;BME280;5143;42.584;23.164;2023-04-27T10:08:42;92446.38;;;11.84;44.93
10202;BME280;5143;42.584;23.164;2023-04-27T10:11:14;92442.94;;;11.89;46.54
10202;BME280;5143;42.584;23.164;2023-04-27T10:13:50;92442.97;;;12.33;45.83
10202;BME280;5143;42.584;23.164;2023-04-27T10:16:18;92445.22;;;13.01;45.47
10202;BME280;5143;42.584;23.164;2023-04-27T10:18:50;92448.91;;;13.32;44.00
10202;BME280;5143;42.584;23.164;2023-04-27T10:21:18;92445.16;;;13.40;44.89
10202;BME280;5143;42.584;23.164;2023-04-27T10:23:45;92440.50;;;13.76;41.09
10202;BME280;5143;42.584;23.164;2023-04-27T10:26:20;92450.94;;;14.35;39.43
10202;BME280;5143;42.584;23.164;2023-04-27T10:28:55;92436.75;;;14.26;41.92
10202;BME280;5143;42.584;23.164;2023-04-27T10:31:26;92445.50;;;13.78;41.14
10202;BME280;5143;42.584;23.164;2023-04-27T10:34:04;92435.25;;;13.21;43.27
10202;BME280;5143;42.584;23.164;2023-04-27T10:36:33;92442.97;;;13.11;42.33
10202;BME280;5143;42.584;23.164;2023-04-27T10:39:01;92445.94;;;13.02;41.62
10202;BME280;5143;42.584;23.164;2023-04-27T10:41:34;92440.97;;;13.17;43.12
10202;BME280;5143;42.584;23.164;2023-04-27T10:44:13;92445.72;;;12.83;42.06
10202;BME280;5143;42.584;23.164;2023-04-27T10:46:51;92424.53;;;12.95;44.05
10202;BME280;5143;42.584;23.164;2023-04-27T10:49:19;92439.94;;;13.37;41.72
10202;BME280;5143;42.584;23.164;2023-04-27T10:51:47;92440.25;;;13.80;42.72
10202;BME280;5143;42.584;23.164;2023-04-27T10:54:14;92440.72;;;13.89;42.81
10202;BME280;5143;42.584;23.164;2023-04-27T10:56:42;92436.31;;;14.16;40.17
10202;BME280;5143;42.584;23.164;2023-04-27T10:59:09;92439.97;;;14.35;42.01
10202;BME280;5143;42.584;23.164;2023-04-27T11:01:36;92434.06;;;14.20;40.70
10202;BME280;5143;42.584;23.164;2023-04-27T11:04:03;92445.00;;;14.66;39.99
10202;BME280;5143;42.584;23.164;2023-04-27T11:06:30;92432.28;;;14.23;39.23
10202;BME280;5143;42.584;23.164;2023-04-27T11:08:58;92442.06;;;13.60;41.31
10202;BME280;5143;42.584;23.164;2023-04-27T11:11:24;92427.56;;;12.64;42.04
10202;BME280;5143;42.584;23.164;2023-04-27T11:13:53;92431.03;;;13.09;41.37
10202;BME280;5143;42.584;23.164;2023-04-27T11:16:20;92430.53;;;12.99;43.03
10202;BME280;5143;42.584;23.164;2023-04-27T11:18:48;92428.78;;;13.01;43.13
10202;BME280;5143;42.584;23.164;2023-04-27T11:21:16;92425.47;;;13.36;42.50
10202;BME280;5143;42.584;23.164;2023-04-27T11:23:44;92411.41;;;13.68;40.91
10202;BME280;5143;42.584;23.164;2023-04-27T11:26:12;92419.03;;;13.17;43.92
10202;BME280;5143;42.584;23.164;2023-04-27T11:28:40;92426.31;;;12.70;42.76
10202;BME280;5143;42.584;23.164;2023-04-27T11:31:09;92439.75;;;12.85;42.65
10202;BME280;5143;42.584;23.164;2023-04-27T11:33:36;92442.25;;;12.38;41.53
10202;BME280;5143;42.584;23.164;2023-04-27T11:36:15;92435.78;;;12.30;41.11
10202;BME280;5143;42.584;23.164;2023-04-27T11:38:41;92433.78;;;12.70;42.30
10202;BME280;5143;42.584;23.164;2023-04-27T11:41:08;92431.03;;;12.92;43.08
10202;BME280;5143;42.584;23.164;2023-04-27T11:43:36;92440.75;;;12.60;40.83
10202;BME280;5143;42.584;23.164;2023-04-27T11:46:06;92436.78;;;12.50;41.42
10202;BME280;5143;42.584;23.164;2023-04-27T11:48:37;92446.69;;;12.03;42.51
10202;BME280;5143;42.584;23.164;2023-04-27T11:51:04;92438.75;;;12.16;43.42
10202;BME280;5143;42.584;23.164;2023-04-27T11:53:32;92435.03;;;12.19;44.60
10202;BME280;5143;42.584;23.164;2023-04-27T11:56:00;92437.25;;;12.15;43.16
10202;BME280;5143;42.584;23.164;2023-04-27T11:58:32;92430.22;;;11.80;44.24
10202;BME280;5143;42.584;23.164;2023-04-27T12:00:59;92440.72;;;12.15;45.73
10202;BME280;5143;42.584;23.164;2023-04-27T12:03:27;92442.81;;;11.67;44.26
10202;BME280;5143;42.584;23.164;2023-04-27T12:05:56;92440.16;;;11.78;45.98
10202;BME280;5143;42.584;23.164;2023-04-27T12:08:23;92442.94;;;11.89;46.00
10202;BME280;5143;42.584;23.164;2023-04-27T12:10:50;92441.97;;;12.25;45.64
10202;BME280;5143;42.584;23.164;2023-04-27T12:13:17;92442.00;;;12.42;45.54
10202;BME280;5143;42.584;23.164;2023-04-27T12:15:44;92445.22;;;12.29;43.71
10202;BME280;5143;42.584;23.164;2023-04-27T12:18:11;92446.97;;;12.43;44.65
10202;BME280;5143;42.584;23.164;2023-04-27T12:20:38;92451.47;;;12.35;44.59
10202;BME280;5143;42.584;23.164;2023-04-27T12:23:06;92449.91;;;12.01;44.39
10202;BME280;5143;42.584;23.164;2023-04-27T12:25:33;92445.47;;;12.26;45.61
10202;BME280;5143;42.584;23.164;2023-04-27T12:28:00;92449.22;;;12.39;43.36
10202;BME280;5143;42.584;23.164;2023-04-27T12:30:27;92452.47;;;12.43;44.57
10202;BME280;5143;42.584;23.164;2023-04-27T12:32:54;92465.88;;;12.30;44.65
10202;BME280;5143;42.584;23.164;2023-04-27T12:35:23;92454.16;;;12.08;42.75
10202;BME280;5143;42.584;23.164;2023-04-27T12:37:50;92446.47;;;12.28;43.02
10202;BME280;5143;42.584;23.164;2023-04-27T12:40:18;92448.72;;;12.35;43.34
10202;BME280;5143;42.584;23.164;2023-04-27T12:42:47;92455.63;;;12.14;43.58
10202;BME280;5143;42.584;23.164;2023-04-27T12:45:14;92454.44;;;12.26;41.89
10202;BME280;5143;42.584;23.164;2023-04-27T12:47:40;92451.69;;;12.26;43.89
10202;BME280;5143;42.584;23.164;2023-04-27T12:50:08;92452.94;;;12.36;40.81
10202;BME280;5143;42.584;23.164;2023-04-27T12:52:35;92459.19;;;12.65;41.82
10202;BME280;5143;42.584;23.164;2023-04-27T12:55:02;92453.94;;;13.11;42.23
10202;BME280;5143;42.584;23.164;2023-04-27T12:57:31;92437.78;;;12.80;41.02
10202;BME280;5143;42.584;23.164;2023-04-27T12:59:58;92444.69;;;13.03;42.48
10202;BME280;5143;42.584;23.164;2023-04-27T13:02:25;92458.13;;;13.29;41.36
10202;BME280;5143;42.584;23.164;2023-04-27T13:04:52;92456.66;;;13.00;41.51
10202;BME280;5143;42.584;23.164;2023-04-27T13:07:19;92447.72;;;12.44;41.16
10202;BME280;5143;42.584;23.164;2023-04-27T13:09:46;92450.47;;;12.33;41.75